ENSO/SRP METAR and TAF weather

Enter ICAO airport designator
Station Type Date Time Source
ENSO METAR 2020/07/03 12:50 UTC NOAA

ENSO 031250Z 12010KT 9999 FEW015 SCT030 BKN090 10/07 Q1005


Station Type Date Time Source
ENSO Decoded METAR 2020/07/03 12:50 UTC NOAA

Stord / Soerstokken, Norway (ENSO) 59-48N 005-21E
Jul 03, 2020 - 08:50 AM EDT / 2020.07.03 1250 UTC
Wind: from the ESE (120 degrees) at 12 MPH (10 KT):0
Visibility: greater than 7 mile(s):0
Sky conditions: mostly cloudy
Temperature: 50 F (10 C)
Dew Point: 44 F (7 C)
Relative Humidity: 81%
Pressure (altimeter): 29.68 in. Hg (1005 hPa)
ob: ENSO 031250Z 12010KT 9999 FEW015 SCT030 BKN090 10/07 Q1005
cycle: 13

Station Type Date Time Source
ENSO TAF UTC NOAA

Error!

Example: see airport list